createdAt,value
2017-07-14T00:00:57.852Z,12.60
2017-07-14T00:03:26.329Z,12.70
2017-07-14T00:05:55.238Z,12.80
2017-07-14T00:08:24.119Z,12.90
2017-07-14T00:10:53.152Z,12.90
2017-07-14T00:13:22.037Z,13.00
2017-07-14T00:15:50.497Z,12.80
2017-07-14T00:18:19.338Z,12.60
2017-07-14T00:20:48.235Z,12.40
2017-07-14T00:23:17.869Z,12.20
2017-07-14T00:25:46.305Z,12.30
2017-07-14T00:28:14.750Z,12.60
2017-07-14T00:30:43.670Z,12.70
2017-07-14T00:33:12.871Z,12.60
2017-07-14T00:35:41.301Z,12.60
2017-07-14T00:38:09.813Z,12.40
2017-07-14T00:40:39.021Z,12.20
2017-07-14T00:43:07.482Z,12.20
2017-07-14T00:45:36.739Z,12.30
2017-07-14T00:48:05.199Z,12.50
2017-07-14T00:50:33.633Z,12.50
2017-07-14T00:53:02.594Z,12.60
2017-07-14T00:55:31.046Z,12.90
2017-07-14T00:57:59.886Z,13.10
2017-07-14T01:00:28.372Z,13.10
2017-07-14T01:02:57.579Z,13.10
2017-07-14T01:05:26.122Z,13.10
2017-07-14T01:07:54.564Z,13.10
2017-07-14T01:10:23.079Z,13.20
2017-07-14T01:12:52.661Z,13.20
2017-07-14T01:15:21.515Z,13.10
2017-07-14T01:17:50.559Z,13.10
2017-07-14T01:20:19.014Z,13.10
2017-07-14T01:22:48.296Z,13.00
2017-07-14T01:25:17.179Z,13.10
2017-07-14T01:27:46.401Z,13.20
2017-07-14T01:30:15.243Z,13.40
2017-07-14T01:32:44.119Z,13.50
2017-07-14T01:35:12.557Z,13.60
2017-07-14T01:37:41.064Z,13.60
2017-07-14T01:40:09.224Z,13.50
2017-07-14T01:42:37.000Z,13.50
2017-07-14T01:45:05.181Z,13.50
2017-07-14T01:47:34.066Z,13.60
2017-07-14T01:50:02.532Z,13.70
2017-07-14T01:52:31.503Z,13.80
2017-07-14T01:54:59.832Z,13.80
2017-07-14T01:57:28.715Z,13.80
2017-07-14T01:59:57.643Z,13.80
2017-07-14T02:02:26.078Z,13.70
2017-07-14T02:04:54.364Z,13.60
2017-07-14T02:07:22.533Z,13.40
2017-07-14T02:09:50.982Z,13.30
2017-07-14T02:12:19.911Z,13.10
2017-07-14T02:14:48.772Z,13.10
2017-07-14T02:17:17.648Z,13.00
2017-07-14T02:19:46.390Z,13.00
2017-07-14T02:22:14.511Z,13.00
2017-07-14T02:24:43.440Z,13.00
2017-07-14T02:27:11.958Z,13.10
2017-07-14T02:29:40.868Z,13.30
2017-07-14T02:32:09.355Z,13.30
2017-07-14T02:34:37.862Z,13.30
2017-07-14T02:37:06.448Z,13.30
2017-07-14T02:39:35.322Z,13.30
2017-07-14T02:42:03.978Z,13.30
2017-07-14T02:44:32.520Z,13.30
2017-07-14T02:47:01.433Z,13.30
2017-07-14T02:49:30.866Z,13.20
2017-07-14T02:51:59.383Z,13.20
2017-07-14T02:54:28.240Z,13.10
2017-07-14T02:56:56.846Z,13.40
2017-07-14T02:59:25.049Z,13.40
2017-07-14T03:01:53.942Z,13.50
2017-07-14T03:04:22.818Z,13.50
2017-07-14T03:06:51.395Z,13.40
2017-07-14T03:09:20.673Z,13.30
2017-07-14T03:11:49.496Z,13.30
2017-07-14T03:14:17.265Z,13.30
2017-07-14T03:16:45.789Z,13.30
2017-07-14T03:19:14.664Z,13.30
2017-07-14T03:21:42.424Z,13.20
2017-07-14T03:24:11.317Z,13.20
2017-07-14T03:26:40.215Z,13.20
2017-07-14T03:29:09.504Z,13.10
2017-07-14T03:31:38.739Z,13.10
2017-07-14T03:34:07.311Z,13.00
2017-07-14T03:36:35.830Z,13.00
2017-07-14T03:39:04.937Z,12.90
2017-07-14T03:41:33.140Z,13.00
2017-07-14T03:44:02.734Z,13.00
2017-07-14T03:46:30.917Z,13.10
2017-07-14T03:48:59.110Z,13.10
2017-07-14T03:51:27.295Z,13.20
2017-07-14T03:53:55.808Z,13.20
2017-07-14T03:56:24.661Z,13.20
2017-07-14T03:58:53.940Z,13.30
2017-07-14T04:01:24.317Z,13.30
2017-07-14T04:03:53.529Z,13.40
2017-07-14T04:06:22.362Z,13.50
2017-07-14T04:08:50.845Z,13.50
2017-07-14T04:11:19.275Z,13.50
2017-07-14T04:13:48.552Z,13.50
2017-07-14T04:16:17.821Z,13.50
2017-07-14T04:18:46.263Z,13.50
2017-07-14T04:21:15.094Z,13.50
2017-07-14T04:23:43.577Z,13.60
2017-07-14T04:26:12.438Z,13.70
2017-07-14T04:28:41.273Z,13.90
2017-07-14T04:31:09.761Z,14.00
2017-07-14T04:33:38.203Z,14.10
2017-07-14T04:36:07.477Z,14.20
2017-07-14T04:38:36.084Z,14.20
2017-07-14T04:41:04.935Z,14.20
2017-07-14T04:43:33.432Z,14.40
2017-07-14T04:46:02.282Z,14.50
2017-07-14T04:48:31.127Z,14.60
2017-07-14T04:50:59.621Z,14.60
2017-07-14T04:53:28.456Z,14.70
2017-07-14T04:55:57.296Z,14.80
2017-07-14T04:58:26.345Z,14.90
2017-07-14T05:00:55.566Z,14.90
2017-07-14T05:03:25.676Z,15.00
2017-07-14T05:05:54.586Z,15.00
2017-07-14T05:08:23.425Z,15.10
2017-07-14T05:10:52.961Z,15.10
2017-07-14T05:13:21.441Z,15.20
2017-07-14T05:15:51.444Z,15.20
2017-07-14T05:18:19.903Z,15.20
2017-07-14T05:20:48.048Z,15.30
2017-07-14T05:23:16.956Z,15.30
2017-07-14T05:25:45.441Z,15.40
2017-07-14T05:28:13.882Z,15.50
2017-07-14T05:30:42.327Z,15.60
2017-07-14T05:33:12.106Z,15.80
2017-07-14T05:35:40.606Z,15.80
2017-07-14T05:38:09.035Z,15.70
2017-07-14T05:40:37.684Z,16.70
2017-07-14T05:43:06.190Z,18.20
2017-07-14T05:45:35.098Z,19.50
2017-07-14T05:48:03.548Z,20.50
2017-07-14T05:50:32.594Z,20.70
2017-07-14T05:53:02.209Z,20.20
2017-07-14T05:55:31.989Z,20.00
2017-07-14T05:58:00.435Z,19.80
2017-07-14T06:00:29.332Z,20.10
2017-07-14T06:02:58.168Z,20.30
2017-07-14T06:05:27.045Z,20.50
2017-07-14T06:07:56.544Z,20.40
2017-07-14T06:10:25.380Z,20.50
2017-07-14T06:12:54.600Z,20.30
2017-07-14T06:15:23.850Z,20.40
2017-07-14T06:17:52.705Z,20.10
2017-07-14T06:20:21.157Z,19.70
2017-07-14T06:22:50.060Z,19.30
2017-07-14T06:25:18.512Z,19.20
2017-07-14T06:27:47.717Z,19.30
2017-07-14T06:30:16.227Z,19.80
2017-07-14T06:32:45.439Z,20.00
2017-07-14T06:35:15.367Z,20.70
2017-07-14T06:37:43.842Z,21.60
2017-07-14T06:40:12.300Z,21.70
2017-07-14T06:42:41.567Z,21.50
2017-07-14T06:45:10.407Z,21.60
2017-07-14T06:47:39.263Z,21.90
2017-07-14T06:50:09.260Z,22.80
2017-07-14T06:52:38.465Z,23.00
2017-07-14T06:55:07.664Z,22.90
2017-07-14T06:57:36.143Z,22.70
2017-07-14T07:00:05.723Z,21.70
2017-07-14T07:02:34.190Z,21.60
2017-07-14T07:05:02.666Z,21.40
2017-07-14T07:07:31.890Z,21.50
2017-07-14T07:10:01.160Z,21.80
2017-07-14T07:12:29.599Z,23.20
2017-07-14T07:14:58.438Z,24.60
2017-07-14T07:17:28.078Z,25.00
2017-07-14T07:19:56.734Z,25.40
2017-07-14T07:22:25.752Z,25.50
2017-07-14T07:24:54.628Z,25.60
2017-07-14T07:27:23.060Z,25.90
2017-07-14T07:29:51.945Z,26.20
2017-07-14T07:32:20.428Z,26.90
2017-07-14T07:34:50.574Z,27.00
2017-07-14T07:37:19.467Z,27.70
2017-07-14T07:39:48.693Z,27.00
2017-07-14T07:42:18.116Z,26.50
2017-07-14T07:44:46.679Z,25.50
2017-07-14T07:47:21.062Z,25.30
2017-07-14T07:49:49.550Z,24.80
2017-07-14T07:52:18.383Z,25.20
2017-07-14T07:54:46.829Z,25.50
2017-07-14T07:57:15.307Z,25.80
2017-07-14T07:59:43.786Z,26.00
2017-07-14T08:02:12.228Z,25.90
2017-07-14T08:04:40.755Z,25.80
2017-07-14T08:07:09.205Z,24.60
2017-07-14T08:09:38.424Z,23.90
2017-07-14T08:12:07.345Z,23.60
2017-07-14T08:14:35.786Z,23.20
2017-07-14T08:17:04.639Z,23.10
2017-07-14T08:19:33.522Z,23.00
2017-07-14T08:22:02.161Z,23.10
2017-07-14T08:24:30.593Z,24.00
2017-07-14T08:26:59.871Z,26.40
2017-07-14T08:29:29.459Z,28.00
2017-07-14T08:31:57.908Z,26.80
2017-07-14T08:34:27.156Z,26.30
2017-07-14T08:36:55.596Z,25.10
2017-07-14T08:39:24.438Z,23.80
2017-07-14T08:41:53.309Z,22.80
2017-07-14T08:44:22.188Z,21.90
2017-07-14T08:46:51.034Z,21.70
2017-07-14T08:49:19.478Z,21.50
2017-07-14T08:51:48.475Z,21.50
2017-07-14T08:54:16.922Z,21.20
2017-07-14T08:56:45.757Z,21.10
2017-07-14T08:59:14.648Z,20.80
2017-07-14T09:01:43.101Z,20.70
2017-07-14T09:04:12.314Z,20.90
2017-07-14T09:06:41.307Z,21.10
2017-07-14T09:09:09.745Z,21.10
2017-07-14T09:11:38.975Z,20.60
2017-07-14T09:14:07.477Z,20.20
2017-07-14T09:16:35.914Z,20.40
2017-07-14T09:19:05.183Z,20.30
2017-07-14T09:21:33.640Z,20.20
2017-07-14T09:24:02.093Z,20.10
2017-07-14T09:26:30.559Z,20.30
2017-07-14T09:28:59.003Z,20.40
2017-07-14T09:31:27.449Z,20.50
2017-07-14T09:33:56.360Z,20.40
2017-07-14T09:36:24.805Z,20.50
2017-07-14T09:38:53.246Z,20.30
2017-07-14T09:41:21.743Z,20.00
2017-07-14T09:43:50.601Z,19.90
2017-07-14T09:46:19.242Z,20.10
2017-07-14T09:48:48.129Z,20.50
2017-07-14T09:51:16.978Z,20.50
2017-07-14T09:53:45.882Z,20.70
2017-07-14T09:56:14.717Z,20.70
2017-07-14T09:58:43.927Z,20.60
2017-07-14T10:01:12.484Z,20.60
2017-07-14T10:03:40.990Z,20.40
2017-07-14T10:06:09.429Z,20.80
2017-07-14T10:08:38.268Z,20.70
2017-07-14T10:11:06.771Z,21.20
2017-07-14T10:13:36.013Z,21.30
2017-07-14T10:16:04.919Z,21.50
2017-07-14T10:18:33.756Z,21.40
2017-07-14T10:21:02.607Z,21.50
2017-07-14T10:23:31.858Z,21.80
2017-07-14T10:26:00.685Z,21.80
2017-07-14T10:28:29.147Z,21.90
2017-07-14T10:30:57.623Z,21.80
2017-07-14T10:33:26.467Z,22.00
2017-07-14T10:35:54.900Z,23.00
2017-07-14T10:38:24.007Z,24.20
2017-07-14T10:40:53.236Z,24.50
2017-07-14T10:43:22.078Z,24.50
2017-07-14T10:45:50.921Z,24.60
2017-07-14T10:48:19.766Z,24.70
2017-07-14T10:50:48.288Z,25.40
2017-07-14T10:53:17.886Z,25.20
2017-07-14T10:55:46.338Z,25.60
2017-07-14T10:58:15.225Z,25.80
2017-07-14T11:00:43.723Z,25.90
2017-07-14T11:03:12.155Z,26.00
2017-07-14T11:05:41.069Z,25.70
2017-07-14T11:08:09.899Z,25.40
2017-07-14T11:10:38.371Z,26.10
2017-07-14T11:13:06.871Z,26.10
2017-07-14T11:15:35.399Z,25.40
2017-07-14T11:18:03.848Z,25.70
2017-07-14T11:20:33.536Z,25.60
2017-07-14T11:23:01.983Z,24.60
2017-07-14T11:25:31.566Z,26.80
2017-07-14T11:28:00.819Z,28.80
2017-07-14T11:30:29.686Z,30.40
2017-07-14T11:32:58.183Z,29.30
2017-07-14T11:35:26.661Z,28.70
2017-07-14T11:37:55.558Z,30.20
2017-07-14T11:40:24.407Z,31.20
2017-07-14T11:42:53.245Z,31.80
2017-07-14T11:45:21.726Z,33.00
2017-07-14T11:47:50.180Z,31.50
2017-07-14T11:50:19.243Z,32.40
2017-07-14T11:52:47.679Z,31.90
2017-07-14T11:55:16.649Z,32.40
2017-07-14T11:57:45.098Z,30.80
2017-07-14T12:00:14.330Z,30.50
2017-07-14T12:02:43.241Z,32.20
2017-07-14T12:05:11.699Z,31.90
2017-07-14T12:07:40.146Z,29.50
2017-07-14T12:10:08.644Z,29.80
2017-07-14T12:12:38.077Z,31.20
2017-07-14T12:15:08.739Z,32.20
2017-07-14T12:17:37.590Z,31.80
2017-07-14T12:20:06.445Z,31.60
2017-07-14T12:22:35.688Z,30.90
2017-07-14T12:25:04.591Z,31.20
2017-07-14T12:27:33.445Z,32.40
2017-07-14T12:30:02.280Z,33.40
2017-07-14T12:32:30.763Z,31.80
2017-07-14T12:34:59.230Z,31.80
2017-07-14T12:37:27.869Z,31.70
2017-07-14T12:39:56.766Z,30.50
2017-07-14T12:42:25.189Z,31.00
2017-07-14T12:44:54.429Z,33.60
2017-07-14T12:47:23.712Z,33.20
2017-07-14T12:49:52.164Z,32.50
2017-07-14T12:52:21.132Z,32.20
2017-07-14T12:54:50.014Z,32.40
2017-07-14T12:57:18.460Z,32.80
2017-07-14T12:59:47.325Z,33.70
2017-07-14T13:02:16.217Z,35.80
2017-07-14T13:04:45.077Z,35.10
2017-07-14T13:07:14.344Z,33.90
2017-07-14T13:09:43.372Z,31.70
2017-07-14T13:12:11.823Z,29.80
2017-07-14T13:14:40.700Z,28.40
2017-07-14T13:17:09.156Z,28.00
2017-07-14T13:19:38.086Z,27.10
2017-07-14T13:22:06.932Z,26.00
2017-07-14T13:24:35.765Z,26.20
2017-07-14T13:27:04.671Z,25.80
2017-07-14T13:29:33.738Z,25.10
2017-07-14T13:32:02.958Z,24.30
2017-07-14T13:34:32.151Z,23.60
2017-07-14T13:37:00.638Z,23.40
2017-07-14T13:39:29.548Z,23.30
2017-07-14T13:41:58.028Z,23.20
2017-07-14T13:44:27.239Z,23.10
2017-07-14T13:46:56.139Z,22.90
2017-07-14T13:49:25.384Z,22.70
2017-07-14T13:51:53.887Z,22.50
2017-07-14T13:54:22.345Z,22.50
2017-07-14T13:56:51.432Z,22.60
2017-07-14T13:59:19.921Z,22.40
2017-07-14T14:01:48.470Z,22.30
2017-07-14T14:04:16.910Z,21.60
2017-07-14T14:06:46.142Z,21.00
2017-07-14T14:09:14.765Z,20.90
2017-07-14T14:11:43.619Z,20.90
2017-07-14T14:14:12.941Z,20.90
2017-07-14T14:16:41.799Z,21.00
2017-07-14T14:19:10.995Z,21.00
2017-07-14T14:21:39.493Z,20.60
2017-07-14T14:24:07.942Z,20.00
2017-07-14T14:26:37.243Z,19.60
2017-07-14T14:29:13.010Z,19.20
2017-07-14T14:49:52.656Z,25.60
2017-07-14T14:52:21.880Z,26.10
2017-07-14T14:54:50.316Z,26.80
2017-07-14T14:57:19.443Z,27.40
2017-07-14T14:59:47.891Z,27.90
2017-07-14T15:02:17.300Z,28.40
2017-07-14T15:04:48.274Z,27.30
2017-07-14T15:07:17.530Z,28.40
2017-07-14T15:09:45.988Z,29.90
2017-07-14T15:12:14.817Z,30.20
2017-07-14T15:14:43.661Z,30.80
2017-07-14T15:17:12.521Z,30.40
2017-07-14T15:19:41.461Z,28.00
2017-07-14T15:22:09.902Z,26.30
2017-07-14T15:24:38.359Z,25.10
2017-07-14T15:27:07.498Z,23.80
2017-07-14T15:29:36.367Z,23.00
2017-07-14T15:32:04.815Z,22.00
2017-07-14T15:34:33.705Z,21.70
2017-07-14T15:37:02.178Z,20.80
2017-07-14T15:39:31.400Z,20.10
2017-07-14T15:42:00.357Z,19.60
2017-07-14T15:44:30.566Z,19.20
2017-07-14T15:47:00.026Z,18.40
2017-07-14T15:49:28.888Z,18.10
2017-07-14T15:51:57.779Z,18.50
2017-07-14T15:54:27.000Z,20.10
2017-07-14T15:56:55.477Z,21.60
2017-07-14T15:59:24.364Z,22.50
2017-07-14T16:01:53.235Z,22.70
2017-07-14T16:04:22.317Z,22.20
2017-07-14T16:06:51.189Z,21.30
2017-07-14T16:09:20.818Z,21.90
2017-07-14T16:11:50.413Z,22.90
2017-07-14T16:14:18.866Z,22.20
2017-07-14T16:16:47.326Z,21.50
2017-07-14T16:19:16.173Z,21.00
2017-07-14T16:21:45.461Z,21.00
2017-07-14T16:24:14.314Z,20.80
2017-07-14T16:26:43.175Z,20.70
2017-07-14T16:29:12.105Z,21.40
2017-07-14T16:31:40.551Z,22.40
2017-07-14T16:34:09.765Z,22.30
2017-07-14T16:36:39.054Z,22.60
2017-07-14T16:39:08.270Z,22.70
2017-07-14T16:44:06.824Z,22.70
2017-07-14T16:46:35.262Z,22.50
2017-07-14T16:49:04.131Z,21.80
2017-07-14T16:51:32.656Z,21.30
2017-07-14T16:54:02.644Z,21.80
2017-07-14T16:56:31.523Z,21.80
2017-07-14T16:58:59.985Z,22.50
2017-07-14T17:01:28.424Z,23.30
2017-07-14T17:03:57.323Z,23.90
2017-07-14T17:06:26.227Z,23.00
2017-07-14T17:08:54.663Z,22.40
2017-07-14T17:11:23.957Z,22.20
2017-07-14T17:13:52.829Z,22.70
2017-07-14T17:16:22.890Z,22.40
2017-07-14T17:18:51.744Z,22.40
2017-07-14T17:21:20.980Z,23.00
2017-07-14T17:23:50.446Z,23.20
2017-07-14T17:26:19.320Z,23.80
2017-07-14T17:28:48.397Z,24.20
2017-07-14T17:31:17.317Z,24.10
2017-07-14T17:33:46.167Z,23.80
2017-07-14T17:36:16.152Z,23.60
2017-07-14T17:38:45.004Z,23.40
2017-07-14T17:41:14.523Z,23.10
2017-07-14T17:43:44.562Z,23.10
2017-07-14T17:46:13.641Z,22.50
2017-07-14T17:48:42.088Z,22.00
2017-07-14T17:51:10.971Z,21.70
2017-07-14T17:53:39.910Z,21.40
2017-07-14T17:56:08.571Z,20.90
2017-07-14T17:58:37.787Z,20.20
2017-07-14T18:01:06.677Z,20.50
2017-07-14T18:03:35.732Z,20.70
2017-07-14T18:06:04.777Z,20.90
2017-07-14T18:08:33.314Z,20.70
2017-07-14T18:11:01.759Z,20.10
2017-07-14T18:13:30.749Z,19.50
2017-07-14T18:15:59.647Z,19.00
2017-07-14T18:18:28.501Z,18.30
2017-07-14T18:20:56.951Z,17.90
2017-07-14T18:23:25.450Z,17.70
2017-07-14T18:25:54.302Z,17.50
2017-07-14T18:28:22.771Z,17.20
2017-07-14T18:30:52.395Z,16.90
2017-07-14T18:33:21.348Z,16.80
2017-07-14T18:35:50.409Z,16.80
2017-07-14T18:38:18.926Z,16.80
2017-07-14T18:40:49.547Z,17.30
2017-07-14T18:43:18.387Z,17.60
2017-07-14T18:45:47.217Z,17.50
2017-07-14T18:48:15.699Z,17.30
2017-07-14T18:50:44.781Z,17.10
2017-07-14T18:53:13.630Z,16.70
2017-07-14T18:55:42.913Z,16.60
2017-07-14T18:58:11.762Z,16.50
2017-07-14T19:00:39.931Z,16.30
2017-07-14T19:03:09.544Z,16.70
2017-07-14T19:05:38.427Z,16.80
2017-07-14T19:08:06.874Z,16.30
2017-07-14T19:10:36.135Z,15.90
2017-07-14T19:13:04.642Z,15.90
2017-07-14T19:15:33.095Z,16.00
2017-07-14T19:18:01.551Z,15.70
2017-07-14T19:20:30.236Z,15.50
2017-07-14T19:22:58.727Z,15.40
2017-07-14T19:25:28.159Z,16.10
2017-07-14T19:27:57.388Z,16.50
2017-07-14T19:30:25.854Z,16.20
2017-07-14T19:32:55.821Z,15.70
2017-07-14T19:35:24.683Z,15.50
2017-07-14T19:37:53.586Z,15.40
2017-07-14T19:40:23.165Z,15.30
2017-07-14T19:42:52.043Z,15.50
2017-07-14T19:45:21.145Z,15.50
2017-07-14T19:47:50.471Z,15.50
2017-07-14T19:50:18.972Z,15.60
2017-07-14T19:52:47.423Z,15.60
2017-07-14T19:55:15.935Z,15.50
2017-07-14T19:57:44.412Z,15.30
2017-07-14T20:00:13.328Z,15.30
2017-07-14T20:02:41.954Z,15.20
2017-07-14T20:05:10.837Z,15.20
2017-07-14T20:07:39.377Z,15.20
2017-07-14T20:10:08.612Z,15.20
2017-07-14T20:12:37.458Z,15.20
2017-07-14T20:15:06.681Z,15.20
2017-07-14T20:17:35.791Z,15.30
2017-07-14T20:20:05.107Z,15.30
2017-07-14T20:22:33.969Z,15.00
2017-07-14T20:25:02.851Z,15.10
2017-07-14T20:27:31.694Z,15.10
2017-07-14T20:30:00.130Z,14.90
2017-07-14T20:32:29.024Z,14.90
2017-07-14T20:34:57.472Z,14.90
2017-07-14T20:37:26.437Z,14.60
2017-07-14T20:39:55.533Z,14.50
2017-07-14T20:42:24.410Z,14.50
2017-07-14T20:44:53.240Z,14.60
2017-07-14T20:47:22.866Z,14.50
2017-07-14T20:49:52.096Z,14.50
2017-07-14T20:52:20.584Z,14.40
2017-07-14T20:54:49.037Z,14.40
2017-07-14T20:57:17.884Z,14.50
2017-07-14T20:59:47.149Z,14.60
2017-07-14T21:02:16.278Z,14.60
2017-07-14T21:04:45.237Z,15.00
2017-07-14T21:07:13.680Z,15.00
2017-07-14T21:09:42.521Z,15.00
2017-07-14T21:12:11.209Z,14.80
2017-07-14T21:14:40.045Z,14.80
2017-07-14T21:17:09.399Z,14.80
2017-07-14T21:19:38.237Z,15.10
2017-07-14T21:22:07.067Z,15.00
2017-07-14T21:24:35.941Z,14.90
2017-07-14T21:27:04.835Z,14.70
2017-07-14T21:29:33.684Z,14.80
2017-07-14T21:32:02.525Z,14.80
2017-07-14T21:34:31.086Z,14.70
2017-07-14T21:36:59.540Z,14.50
2017-07-14T21:39:28.039Z,14.40
2017-07-14T21:41:56.927Z,14.50
2017-07-14T21:44:25.379Z,14.40
2017-07-14T21:46:53.841Z,14.40
2017-07-14T21:49:22.607Z,14.40
2017-07-14T21:51:51.069Z,14.50
2017-07-14T21:54:19.505Z,14.30
2017-07-14T21:56:47.981Z,14.40
2017-07-14T21:59:16.429Z,14.80
2017-07-14T22:01:44.910Z,15.00
2017-07-14T22:04:13.747Z,15.00
2017-07-14T22:06:43.170Z,14.90
2017-07-14T22:09:12.001Z,14.90
2017-07-14T22:11:40.469Z,14.90
2017-07-14T22:14:08.965Z,15.10
2017-07-14T22:16:38.007Z,15.10
2017-07-14T22:19:07.194Z,15.10
2017-07-14T22:21:35.704Z,15.10
2017-07-14T22:24:04.534Z,15.10
2017-07-14T22:26:33.479Z,15.00
2017-07-14T22:29:02.309Z,15.00
2017-07-14T22:31:30.928Z,14.90
2017-07-14T22:33:59.422Z,15.00
2017-07-14T22:36:27.875Z,15.10
2017-07-14T22:38:56.314Z,15.00
2017-07-14T22:41:25.224Z,15.00
2017-07-14T22:43:55.058Z,15.00
2017-07-14T22:46:23.897Z,14.90
2017-07-14T22:48:52.736Z,14.90
2017-07-14T22:51:21.566Z,14.90
2017-07-14T22:53:50.102Z,14.90
2017-07-14T22:56:18.938Z,14.80
2017-07-14T22:58:47.397Z,14.80
2017-07-14T23:01:15.892Z,14.70
2017-07-14T23:03:44.747Z,14.70
2017-07-14T23:06:13.363Z,14.70
2017-07-14T23:08:42.374Z,14.70
2017-07-14T23:11:11.206Z,14.60
2017-07-14T23:13:40.187Z,14.50
2017-07-14T23:16:08.675Z,14.40
2017-07-14T23:18:37.348Z,14.30
2017-07-14T23:21:05.837Z,14.30
2017-07-14T23:23:35.556Z,14.30
2017-07-14T23:26:05.058Z,14.30
2017-07-14T23:28:33.506Z,14.30
2017-07-14T23:31:01.949Z,14.30
2017-07-14T23:33:30.857Z,14.30
2017-07-14T23:35:59.701Z,14.30
2017-07-14T23:38:28.140Z,14.20
2017-07-14T23:40:56.647Z,14.20
2017-07-14T23:43:25.687Z,14.20
2017-07-14T23:45:54.543Z,14.20
2017-07-14T23:48:23.038Z,14.20
2017-07-14T23:50:51.908Z,14.20
2017-07-14T23:53:20.353Z,14.30
2017-07-14T23:55:49.268Z,14.10
2017-07-14T23:58:18.133Z,14.00
